Aérodrome :
LOGIN :

S'inscrire | Disclaimer

   EN    FR    IT 

 










Légende :    VFR   VFR Marginal   IFR   IFR Intensif   IFR Très Intensif
Visi : 
Plafond : 
>= 8 km
>= 3000ft
5 à 8 km
1000 à 3000 ft
1500m à 5 km
500 à 1000 ft
800 à 1500m
200 à 500 ft
< 800m
< 200 ft
Symboles :   Orages  Brouillard  Fortes neiges  Fortes précipitations  Vent > 20 kt
SIGMETs :   Divers  Orages  Givrage  Turbulence  Onde Orograph.  Cendres Volcan.







- Altitude de l'aérodrome : 433 ft
- Voir les cartes d'approche


LFOC - Chateaudun

DERNIER METAR :
  • 250830Z AUTO 24011KT 9999 BKN010/// OVC015/// 14/11 Q1017 TEMPO 30015G25KT 4000 -RA SCT008 BKN015

METARs EXPIRÉS :
  • 250800Z AUTO 24010KT 9999 OVC012 13/11 Q1017 BECMG BKN007
  • 250730Z AUTO 24009KT 9999 OVC011 13/11 Q1017 BECMG BKN007
  • 250700Z AUTO 25008KT 9999 BKN011 OVC024 12/10 Q1017 BECMG BKN007
  • 250630Z AUTO 24008KT 9999 FEW011 BKN023 OVC058 12/10 Q1016 BECMG BKN007
  • 250600Z AUTO 25009KT CAVOK 11/10 Q1016 BECMG BKN007

TAF TAF LFOC
Valide du 25 à 09h jusqu'au 26 à 09h UTC


250800Z 2509/2609 24012KT 9999 BKN009 OVC015
PROB40
TEMPO 2510/2512 4000 -RADZ BKN005 BKN012
BECMG 2512/2514 29015G25KT
PROB30
TEMPO 2514/2517 4000 -SHRA BKN020
BECMG 2517/2519 CAVOK
Pas de NOTAMs connus pour ce terrain.



MET'MAP, la Météo Aéronautique d'un coup d'oeil ! - Copyright ORBIFLY Décembre 2007 - Disclaimer

ORBIFLY MET'MAP TEAM :

Programmation & Développement : Alexandra Zaïnal
Conception & Développement : Baudouin d'Aumeries
Co-Programmation & Développement : Marc-Olivier Méhu
Soutien technique & logistique : Manuel Goepfert

Contact : metmap@orbifly.com




SOURCES & CREDITS :

   NOAA